Time;durP1;ratioP1;P1;durP2;ratioP2;P2;SDS_P1;SDS_P2;PMS_P1;PMS_P2;Temp;Humidity;BMP_temperature;BMP_pressure;BME280_temperature;BME280_humidity;BME280_pressure;Samples;Min_cycle;Max_cycle;Signal;HPM_P1;HPM_P2
2022/12/03 00:01:36;;;;;;;8.63;1.52;;;;;;;-1.76;93.15;101824.03;10329688;28;20097;-73
2022/12/03 00:06:37;;;;;;;5.40;1.80;;;;;;;-1.50;92.71;101868.25;10336011;28;20545;-73
2022/12/03 00:11:38;;;;;;;5.22;2.05;;;;;;;-2.47;93.07;101714.44;10336151;28;20054;-73
2022/12/03 00:16:38;;;;;;;4.78;1.88;;;;;;;-1.91;92.38;101808.00;10336681;28;20132;-73
2022/12/03 00:21:39;;;;;;;4.20;2.05;;;;;;;-2.10;92.84;101776.53;10336130;28;20124;-73
2022/12/03 00:26:40;;;;;;;9.57;2.17;;;;;;;-1.68;93.33;101846.28;10334964;28;20042;-73
2022/12/03 00:31:41;;;;;;;6.32;2.22;;;;;;;-1.59;93.03;101881.59;10335900;28;20100;-73
2022/12/03 00:36:42;;;;;;;4.97;2.00;;;;;;;-2.19;93.57;101769.03;10335616;28;20130;-73
2022/12/03 00:41:43;;;;;;;12.45;2.38;;;;;;;-2.06;93.21;101785.09;10335727;28;20050;-72
2022/12/03 00:46:44;;;;;;;4.55;2.67;;;;;;;-1.76;92.39;101829.25;10333570;28;20044;-72
2022/12/03 00:51:44;;;;;;;5.53;2.20;;;;;;;-1.64;93.37;101880.94;10335374;28;20089;-72
2022/12/03 00:56:45;;;;;;;6.57;2.70;;;;;;;-2.18;92.77;101798.53;10334589;28;20038;-73
2022/12/03 01:01:46;;;;;;;7.90;3.35;;;;;;;-1.83;93.28;101859.84;10334243;28;20128;-73
2022/12/03 01:06:47;;;;;;;4.25;2.45;;;;;;;-1.73;92.82;101895.13;10332634;28;20046;-73
2022/12/03 01:11:48;;;;;;;5.55;2.95;;;;;;;-1.76;92.79;101879.59;10333794;28;20038;-74
2022/12/03 01:16:48;;;;;;;8.57;3.85;;;;;;;-1.81;93.07;101902.31;10334283;28;20100;-73
2022/12/03 01:21:50;;;;;;;8.73;3.25;;;;;;;-1.84;93.67;101913.69;10334204;28;20049;-72
2022/12/03 01:26:51;;;;;;;5.65;3.13;;;;;;;-1.84;93.01;101915.44;10333090;28;20050;-73
2022/12/03 01:37:12;;;;;;;6.20;2.97;;;;;;;-2.13;92.82;101877.31;10333079;28;20129;-73
2022/12/03 01:42:20;;;;;;;7.72;3.22;;;;;;;-1.86;92.66;101920.69;10333786;28;20490;-74
2022/12/03 01:47:25;;;;;;;6.65;3.47;;;;;;;-2.32;93.09;101846.66;10333666;28;20053;-73
2022/12/03 01:52:30;;;;;;;7.50;3.08;;;;;;;-2.19;92.99;101886.16;10331981;28;20121;-73
2022/12/03 01:57:40;;;;;;;7.70;3.13;;;;;;;-1.96;93.00;101924.50;10332603;28;20042;-72
2022/12/03 02:02:41;;;;;;;11.43;3.13;;;;;;;-2.67;92.80;101815.69;10332719;28;20441;-73
2022/12/03 02:07:42;;;;;;;7.55;3.00;;;;;;;-2.03;93.18;101929.94;10332463;28;20406;-74
2022/12/03 02:12:48;;;;;;;7.55;3.00;;;;;;;-2.17;93.06;101901.75;10332462;28;20042;-74
2022/12/03 02:17:49;;;;;;;7.97;2.80;;;;;;;-2.07;92.84;101924.84;10331811;28;20133;-73
2022/12/03 02:23:10;;;;;;;6.43;3.03;;;;;;;-2.07;93.13;101921.38;10330662;28;20517;-73
2022/12/03 02:28:11;;;;;;;6.60;3.15;;;;;;;-2.21;92.90;101919.22;10331830;28;20053;-72
2022/12/03 02:33:12;;;;;;;6.85;2.95;;;;;;;-2.11;92.53;101931.06;10331202;28;20042;-72
2022/12/03 02:38:22;;;;;;;7.22;3.00;;;;;;;-2.14;92.19;101938.09;10331776;28;20415;-74
2022/12/03 02:43:23;;;;;;;6.72;3.60;;;;;;;-2.32;92.50;101924.75;10331242;28;20039;-73
2022/12/03 02:48:38;;;;;;;10.60;4.07;;;;;;;-2.33;92.64;101948.25;10335909;28;20069;-72
2022/12/03 02:53:43;;;;;;;8.10;3.35;;;;;;;-2.42;92.67;101936.34;10340545;28;20065;-72
2022/12/03 02:58:48;;;;;;;7.03;3.22;;;;;;;-2.56;93.33;101938.50;10339302;28;20058;-72
2022/12/03 03:03:49;;;;;;;;;;;;;;;-2.53;93.63;101949.66;10339466;28;20046;-72
2022/12/03 03:08:50;;;;;;;7.63;3.17;;;;;;;-2.66;93.51;101968.25;10338599;28;19921;-72
2022/12/03 03:13:51;;;;;;;9.73;3.70;;;;;;;-2.76;93.81;101965.91;10337292;28;20117;-74
2022/12/03 03:18:52;;;;;;;7.68;3.38;;;;;;;-2.73;93.51;101972.78;10338546;28;20152;-72
2022/12/03 03:23:53;;;;;;;11.50;3.70;;;;;;;-3.15;94.41;101918.47;10338107;28;20052;-73
2022/12/03 03:28:53;;;;;;;6.82;3.50;;;;;;;-3.25;94.15;101914.44;10337562;28;20404;-73
2022/12/03 03:33:54;;;;;;;11.90;3.33;;;;;;;-2.83;93.61;101986.97;10338143;28;20049;-73
2022/12/03 03:38:55;;;;;;;9.70;3.88;;;;;;;-2.78;94.20;101995.50;10337242;28;20035;-72
2022/12/03 03:43:57;;;;;;;7.20;3.40;;;;;;;-2.74;94.19;102001.47;10337467;28;20037;-73
2022/12/03 03:48:58;;;;;;;11.60;3.60;;;;;;;-2.77;93.63;102010.19;10337378;28;20109;-72
2022/12/03 03:53:59;;;;;;;6.55;3.30;;;;;;;-2.79;93.94;102015.44;10336871;28;20053;-72
2022/12/03 03:59:01;;;;;;;9.73;3.60;;;;;;;-2.93;93.57;102001.97;10337079;28;20161;-72
2022/12/03 04:04:14;;;;;;;8.50;3.42;;;;;;;-3.32;93.60;101937.13;10336812;28;20042;-72
2022/12/03 04:09:15;;;;;;;13.68;3.35;;;;;;;-2.78;93.68;102022.34;10336055;28;20038;-72
2022/12/03 04:14:16;;;;;;;6.72;3.35;;;;;;;-2.87;93.31;102017.41;10336406;28;20042;-72
2022/12/03 04:19:17;;;;;;;8.63;3.40;;;;;;;-3.13;92.89;101955.69;10335652;28;20034;-73
2022/12/03 04:24:17;;;;;;;7.10;3.40;;;;;;;-2.94;92.54;101994.19;10330162;28;20046;-72
2022/12/03 04:29:19;;;;;;;9.18;3.90;;;;;;;-2.70;92.31;102039.50;10301742;28;20174;-72
2022/12/03 04:39:39;;;;;;;9.80;3.05;;;;;;;-2.64;91.51;102044.53;10294723;28;20039;-72
2022/12/03 04:44:40;;;;;;;8.88;2.95;;;;;;;-2.78;92.03;102013.69;10294301;28;20450;-72
2022/12/03 04:49:46;;;;;;;7.07;3.30;;;;;;;-3.05;90.91;101969.34;10294781;28;20055;-74
2022/12/03 04:54:47;;;;;;;7.72;3.38;;;;;;;-2.68;90.72;102061.13;10295065;28;20047;-73
2022/12/03 04:59:47;;;;;;;8.55;2.90;;;;;;;-2.65;90.61;102076.66;10294518;28;20046;-73
2022/12/03 05:04:48;;;;;;;10.70;3.25;;;;;;;-2.76;91.36;102056.97;10292371;28;20042;-72
2022/12/03 05:09:49;;;;;;;6.43;3.08;;;;;;;-2.58;91.05;102079.03;10293370;28;20066;-72
2022/12/03 05:14:50;;;;;;;6.15;3.17;;;;;;;-2.53;90.97;102060.69;10293805;28;20038;-72
2022/12/03 05:25:10;;;;;;;6.18;3.30;;;;;;;-2.31;90.04;102086.97;10293523;28;20121;-73
2022/12/03 05:30:11;;;;;;;8.25;3.83;;;;;;;-2.38;89.41;102095.88;10293429;28;20129;-72
2022/12/03 05:35:12;;;;;;;9.13;3.35;;;;;;;-2.19;89.60;102094.44;10292725;28;20046;-68
2022/12/03 05:40:13;;;;;;;9.88;3.40;;;;;;;-2.20;89.40;102100.56;10292540;28;20407;-73
2022/12/03 05:45:33;;;;;;;8.00;3.00;;;;;;;-2.31;89.10;102080.03;10246567;28;20062;-74
2022/12/03 05:50:36;;;;;;;5.65;3.17;;;;;;;-2.35;88.48;102036.75;10292401;28;20061;-73
2022/12/03 05:55:37;;;;;;;8.48;3.38;;;;;;;-2.14;87.97;102060.47;10292140;28;20101;-74
2022/12/03 06:00:38;;;;;;;7.00;3.35;;;;;;;-1.88;87.15;102115.28;10322167;28;20494;-74
2022/12/03 06:05:39;;;;;;;10.95;3.30;;;;;;;-2.07;88.04;102062.84;10331829;28;20053;-74
2022/12/03 06:10:39;;;;;;;13.30;3.63;;;;;;;-1.93;87.86;102080.69;10331835;28;20506;-74
2022/12/03 06:15:40;;;;;;;11.68;3.38;;;;;;;-2.32;87.60;101996.78;10332188;28;20410;-74
2022/12/03 06:20:41;;;;;;;7.65;2.95;;;;;;;-2.49;87.12;101965.19;10331592;28;20042;-75
2022/12/03 06:25:42;;;;;;;10.38;3.88;;;;;;;-2.15;87.41;102027.53;10331762;28;20108;-72
2022/12/03 06:30:43;;;;;;;10.40;3.65;;;;;;;-2.32;87.40;101997.63;10331056;28;20042;-74
2022/12/03 06:35:43;;;;;;;12.45;3.42;;;;;;;-1.79;87.16;102040.34;10332024;28;20384;-73
2022/12/03 06:40:44;;;;;;;10.23;3.00;;;;;;;-1.91;86.12;102013.78;10311206;28;20031;-73
2022/12/03 06:45:45;;;;;;;10.30;3.38;;;;;;;-0.97;85.97;102126.34;10291281;28;20462;-73
2022/12/03 06:50:46;;;;;;;7.90;3.28;;;;;;;-1.33;86.14;102072.78;10291129;28;20590;-74
2022/12/03 06:55:47;;;;;;;11.23;2.78;;;;;;;-2.15;85.20;101926.00;10291040;28;20038;-73
2022/12/03 07:00:47;;;;;;;5.43;2.38;;;;;;;-0.94;84.07;102107.13;10290482;28;20050;-74
2022/12/03 07:05:48;;;;;;;6.93;2.40;;;;;;;-1.16;84.70;102088.75;10290899;28;20039;-74
2022/12/03 07:10:49;;;;;;;11.15;3.20;;;;;;;-0.83;84.51;102119.84;10290641;28;20042;-73
2022/12/03 07:15:49;;;;;;;8.90;2.97;;;;;;;-0.75;84.18;102071.72;10291247;28;20052;-73
2022/12/03 07:20:50;;;;;;;5.50;2.30;;;;;;;-0.61;83.04;102086.88;10290557;28;20039;-74
2022/12/03 07:25:51;;;;;;;7.38;2.67;;;;;;;-0.58;83.60;102097.19;10290613;28;20046;-73
2022/12/03 07:30:52;;;;;;;8.13;2.53;;;;;;;-0.41;83.19;102119.28;10290486;28;20043;-73
2022/12/03 07:35:52;;;;;;;8.13;2.47;;;;;;;-0.10;83.34;102130.31;10296131;28;20042;-73
2022/12/03 07:40:53;;;;;;;6.43;2.40;;;;;;;-0.09;82.61;102124.22;10296884;28;20047;-72
2022/12/03 07:45:54;;;;;;;8.23;2.90;;;;;;;-0.59;82.01;102022.44;10297284;28;20050;-73
2022/12/03 07:50:55;;;;;;;12.90;2.38;;;;;;;-0.55;81.37;102025.78;10297538;28;20057;-73
2022/12/03 07:55:56;;;;;;;8.32;3.50;;;;;;;-0.40;81.94;102021.75;10296546;28;20051;-75
2022/12/03 08:00:57;;;;;;;6.65;2.78;;;;;;;0.20;81.27;102106.56;10296373;28;20105;-75
2022/12/03 08:05:57;;;;;;;8.50;2.78;;;;;;;0.15;79.98;102108.50;10296601;28;20039;-76
2022/12/03 08:11:00;;;;;;;7.53;2.78;;;;;;;0.09;80.28;102067.81;10295852;28;20039;-74
2022/12/03 08:16:16;;;;;;;5.45;2.53;;;;;;;0.45;79.82;102109.13;10296743;28;20400;-73
2022/12/03 08:21:19;;;;;;;7.47;2.60;;;;;;;0.12;79.27;102046.78;10294343;28;20097;-74
2022/12/03 08:26:26;;;;;;;7.43;2.55;;;;;;;0.66;79.59;102118.75;10294282;28;20054;-76
2022/12/03 08:31:30;;;;;;;8.07;2.60;;;;;;;0.64;79.17;102107.47;10295154;28;20089;-74
2022/12/03 08:36:32;;;;;;;;;;;;;;;0.68;79.11;102105.59;10296372;28;20096;-73
2022/12/03 08:47:19;;;;;;;7.85;2.63;;;;;;;0.82;77.20;102087.56;10294584;28;20050;-75
2022/12/03 08:52:21;;;;;;;10.25;2.72;;;;;;;0.48;78.62;102029.69;10295217;28;20412;-75
2022/12/03 08:57:30;;;;;;;6.57;2.28;;;;;;;0.83;78.33;102057.88;10295336;28;20047;-74
2022/12/03 09:02:33;;;;;;;9.52;2.65;;;;;;;0.44;76.77;101979.28;10294369;28;20039;-73
2022/12/03 09:07:34;;;;;;;7.28;2.50;;;;;;;0.74;77.61;102008.56;10294811;28;20042;-74
2022/12/03 09:12:34;;;;;;;16.33;2.25;;;;;;;1.34;76.28;102087.16;10293464;28;20047;-75
2022/12/03 09:17:35;;;;;;;16.33;2.63;;;;;;;1.58;76.83;102098.34;10292714;28;20047;-74
2022/12/03 09:22:36;;;;;;;18.27;2.05;;;;;;;1.29;76.88;102003.59;10292562;28;20074;-75
2022/12/03 09:27:37;;;;;;;8.52;2.08;;;;;;;1.59;75.15;102071.25;10298822;28;20137;-75
2022/12/03 09:32:38;;;;;;;14.15;2.08;;;;;;;1.51;75.11;102032.28;10294448;28;20057;-74
2022/12/03 09:37:38;;;;;;;12.55;2.30;;;;;;;1.60;75.12;102041.50;10292879;28;20117;-74
2022/12/03 09:42:40;;;;;;;19.08;2.45;;;;;;;1.37;75.16;101985.75;10293041;28;20053;-74
2022/12/03 09:47:44;;;;;;;13.88;2.20;;;;;;;1.64;74.37;102037.81;10292750;28;20053;-74
2022/12/03 09:52:45;;;;;;;;;;;;;;;2.25;73.59;102071.72;10292608;28;20039;-75
2022/12/03 09:57:46;;;;;;;15.70;2.03;;;;;;;2.45;73.26;102086.50;10291208;28;20435;-76
2022/12/03 10:02:49;;;;;;;11.85;1.67;;;;;;;2.63;72.61;102087.41;10292266;28;20137;-75
2022/12/03 10:07:51;;;;;;;23.42;2.05;;;;;;;2.77;71.80;102088.50;10292236;28;20046;-75
2022/12/03 10:12:53;;;;;;;11.60;1.42;;;;;;;2.60;71.38;102047.31;10292088;28;20122;-74
2022/12/03 10:17:55;;;;;;;10.32;1.30;;;;;;;2.76;71.50;102081.56;10292443;28;20628;-76
2022/12/03 10:22:56;;;;;;;17.95;1.83;;;;;;;2.42;71.92;102018.47;10290584;28;20047;-75
2022/12/03 10:28:02;;;;;;;19.58;1.98;;;;;;;2.96;70.92;102086.66;10291755;28;20042;-75
2022/12/03 10:33:15;;;;;;;16.02;1.48;;;;;;;2.84;70.85;102071.50;10291079;28;20039;-77
2022/12/03 10:38:15;;;;;;;18.60;2.58;;;;;;;2.84;70.88;102079.38;10291980;28;20479;-75
2022/12/03 10:43:22;;;;;;;11.18;2.10;;;;;;;2.75;70.22;102083.31;10291014;28;20042;-75
2022/12/03 10:48:26;;;;;;;15.23;1.67;;;;;;;2.25;70.02;102014.03;10291300;28;20062;-74
2022/12/03 10:53:29;;;;;;;11.13;1.75;;;;;;;2.58;69.81;102089.41;10289506;28;20047;-75
2022/12/03 10:58:35;;;;;;;22.35;2.47;;;;;;;2.15;69.77;102025.84;10290724;28;20047;-73
2022/12/03 11:03:36;;;;;;;14.75;1.75;;;;;;;2.44;69.32;102097.91;10291393;28;20043;-77
2022/12/03 11:08:37;;;;;;;11.55;1.73;;;;;;;2.00;70.35;102016.09;10293837;28;20422;-75
2022/12/03 11:13:38;;;;;;;14.55;1.73;;;;;;;2.07;69.29;102022.75;10299550;28;20066;-75
2022/12/03 11:18:38;;;;;;;11.13;1.48;;;;;;;2.50;69.71;102096.78;10298450;28;20039;-75
2022/12/03 11:23:45;;;;;;;12.57;1.50;;;;;;;2.48;70.74;102096.00;10298179;28;20047;-75
2022/12/03 11:28:46;;;;;;;10.63;1.85;;;;;;;2.47;70.99;102112.66;10297630;28;20039;-75
2022/12/03 11:33:46;;;;;;;20.88;2.22;;;;;;;2.19;70.34;102094.75;10297844;28;20039;-76
2022/12/03 11:38:52;;;;;;;13.60;2.53;;;;;;;2.04;69.95;102122.53;10298298;28;20400;-74
2022/12/03 11:43:56;;;;;;;14.48;1.55;;;;;;;2.14;70.87;102129.03;10296925;28;20050;-74
2022/12/03 11:48:58;;;;;;;12.27;1.37;;;;;;;1.70;71.20;102057.66;10296969;28;20526;-74
2022/12/03 11:53:59;;;;;;;18.98;2.20;;;;;;;2.00;70.84;102152.38;10296684;28;20042;-74
2022/12/03 11:59:03;;;;;;;16.85;2.40;;;;;;;1.91;71.70;102158.03;10297142;28;20043;-74
2022/12/03 12:04:06;;;;;;;20.17;1.87;;;;;;;1.25;71.96;102067.44;10296784;28;20046;-76
2022/12/03 12:09:07;;;;;;;13.40;2.10;;;;;;;1.22;71.82;102088.53;10296144;28;20570;-74
2022/12/03 12:14:10;;;;;;;14.23;2.47;;;;;;;1.66;72.78;102184.47;10296317;28;20042;-74
2022/12/03 12:19:31;;;;;;;17.15;2.92;;;;;;;1.51;73.07;102180.72;10295239;28;20081;-74
2022/12/03 12:24:46;;;;;;;20.75;1.98;;;;;;;1.52;73.50;102191.13;10294327;28;20415;-74
2022/12/03 12:29:53;;;;;;;19.83;2.05;;;;;;;1.00;73.80;102119.16;10295294;28;20118;-74
2022/12/03 12:35:19;;;;;;;11.05;2.25;;;;;;;1.28;74.14;102185.13;10294511;28;20043;-76
2022/12/03 12:40:26;;;;;;;23.80;2.20;;;;;;;1.08;74.62;102179.88;10294361;28;20082;-77
2022/12/03 12:45:33;;;;;;;8.75;1.95;;;;;;;1.18;74.77;102217.00;10294782;28;20050;-75
2022/12/03 12:50:38;;;;;;;10.63;2.10;;;;;;;0.25;75.02;102073.28;10295262;28;20418;-75
2022/12/03 12:55:39;;;;;;;;;;;;;;;1.01;74.82;102218.50;10294248;28;20125;-77
2022/12/03 13:00:40;;;;;;;16.40;1.88;;;;;;;0.72;75.54;102235.34;10318725;28;19977;-76
2022/12/03 13:05:44;;;;;;;10.65;1.63;;;;;;;-0.27;76.18;102107.44;10329868;28;20038;-76
2022/12/03 13:10:46;;;;;;;8.27;2.05;;;;;;;0.44;76.24;102236.38;10334617;28;20046;-75
2022/12/03 13:15:57;;;;;;;12.52;1.95;;;;;;;-0.19;76.49;102155.91;10317355;28;20533;-75
2022/12/03 13:20:59;;;;;;;12.90;2.53;;;;;;;0.14;76.71;102242.69;10293951;28;20053;-75
2022/12/03 13:26:03;;;;;;;14.02;2.85;;;;;;;-0.22;77.36;102206.50;10293004;28;20047;-76
2022/12/03 13:31:28;;;;;;;14.98;3.28;;;;;;;-0.01;78.58;102273.69;10292922;28;20439;-75
2022/12/03 13:36:40;;;;;;;10.27;2.42;;;;;;;-0.44;79.27;102210.75;10267911;28;20047;-76
2022/12/03 13:47:14;;;;;;;10.77;2.50;;;;;;;-0.32;79.88;102288.69;10323611;28;20126;-77
2022/12/03 13:52:18;;;;;;;9.20;2.35;;;;;;;-0.40;79.68;102281.09;10294326;28;20054;-75
2022/12/03 13:57:19;;;;;;;16.83;2.20;;;;;;;-0.42;79.86;102295.09;10303528;28;20047;-76
2022/12/03 14:02:20;;;;;;;8.43;2.28;;;;;;;-0.86;80.32;102268.66;10325494;28;20049;-75
2022/12/03 14:07:21;;;;;;;10.55;2.20;;;;;;;-0.80;80.59;102312.84;10331990;28;20038;-75
2022/12/03 14:12:24;;;;;;;25.83;2.97;;;;;;;-1.51;81.72;102202.78;10316917;28;20114;-75
2022/12/03 14:17:25;;;;;;;13.30;2.45;;;;;;;-1.25;81.24;102277.63;10250855;29;20038;-74
2022/12/03 14:22:26;;;;;;;9.13;2.38;;;;;;;-1.64;81.24;102228.34;10251921;28;20046;-75
2022/12/03 14:27:27;;;;;;;5.60;2.50;;;;;;;-1.76;82.49;102222.63;10264412;28;20047;-72
2022/12/03 14:32:28;;;;;;;9.23;2.45;;;;;;;-1.71;82.25;102283.28;10298543;28;20101;-73
2022/12/03 14:37:28;;;;;;;7.43;1.95;;;;;;;-1.85;82.88;102271.47;10331776;28;20376;-73
2022/12/03 14:42:29;;;;;;;11.30;2.17;;;;;;;-1.76;83.30;102311.22;10330735;28;20088;-73
2022/12/03 14:47:30;;;;;;;4.03;1.80;;;;;;;-2.09;83.29;102253.91;10338466;28;20039;-74
2022/12/03 14:52:31;;;;;;;11.60;2.47;;;;;;;-1.85;83.38;102305.34;10332803;28;20092;-73
2022/12/03 14:57:32;;;;;;;10.13;2.42;;;;;;;-1.79;84.19;102343.41;10318180;28;20047;-73
2022/12/03 15:02:33;;;;;;;8.30;2.22;;;;;;;-1.88;84.38;102361.88;10298951;28;20530;-74
2022/12/03 15:07:33;;;;;;;8.40;2.58;;;;;;;-1.88;84.15;102391.41;10298707;28;20051;-73
2022/12/03 15:12:34;;;;;;;8.88;2.30;;;;;;;-1.89;84.33;102388.81;10298659;28;20042;-73
2022/12/03 15:17:35;;;;;;;6.75;1.92;;;;;;;-2.11;84.93;102368.50;10304358;28;20089;-73
2022/12/03 15:22:36;;;;;;;6.80;2.03;;;;;;;-2.25;85.30;102367.13;10338326;28;20066;-74
2022/12/03 15:27:36;;;;;;;6.57;2.58;;;;;;;-2.59;85.18;102324.50;10338117;28;20490;-73
2022/12/03 15:32:37;;;;;;;5.38;2.13;;;;;;;-2.17;85.73;102425.94;10337914;28;20049;-75
2022/12/03 15:37:38;;;;;;;5.60;2.20;;;;;;;-2.25;85.89;102400.97;10332769;28;20109;-72
2022/12/03 15:42:39;;;;;;;4.68;1.73;;;;;;;-2.18;85.08;102423.38;10318562;28;20046;-75
2022/12/03 15:47:39;;;;;;;6.45;2.25;;;;;;;-2.33;85.52;102425.44;10319083;28;20046;-73
2022/12/03 15:52:40;;;;;;;5.65;1.58;;;;;;;-2.33;85.04;102425.44;10319047;28;20521;-73
2022/12/03 15:57:41;;;;;;;7.70;2.03;;;;;;;-2.53;85.54;102407.63;10326401;28;20042;-73
2022/12/03 16:02:42;;;;;;;9.50;2.45;;;;;;;-2.64;86.31;102412.22;10317850;28;20051;-73
2022/12/03 16:07:43;;;;;;;8.38;1.83;;;;;;;-3.44;86.15;102285.59;10296020;28;20039;-76
2022/12/03 16:12:44;;;;;;;5.72;2.25;;;;;;;-2.58;86.62;102442.44;10312025;28;20057;-75
2022/12/03 16:17:44;;;;;;;5.38;1.80;;;;;;;-2.57;87.48;102449.41;10336598;28;20525;-72
2022/12/03 16:22:45;;;;;;;6.40;2.10;;;;;;;-2.62;86.84;102433.00;10312638;28;20047;-73
2022/12/03 16:27:46;;;;;;;5.97;1.90;;;;;;;-2.50;86.63;102466.59;10277720;28;20046;-73
2022/12/03 16:32:47;;;;;;;7.28;2.15;;;;;;;-2.92;86.76;102404.13;10299606;28;20042;-72
2022/12/03 16:37:48;;;;;;;12.13;2.13;;;;;;;-2.76;87.03;102441.09;10328093;28;20065;-73
2022/12/03 16:42:48;;;;;;;5.35;2.20;;;;;;;-2.50;86.95;102477.00;10321365;28;20046;-73
2022/12/03 16:47:49;;;;;;;10.50;1.90;;;;;;;-2.49;86.71;102477.84;10296284;28;20082;-73
2022/12/03 16:52:50;;;;;;;6.45;2.30;;;;;;;-2.60;86.82;102488.50;10280457;28;20067;-73
2022/12/03 16:57:51;;;;;;;7.65;2.30;;;;;;;-2.58;86.83;102476.28;10272411;28;20048;-73
2022/12/03 17:02:52;;;;;;;6.07;2.13;;;;;;;-3.22;86.87;102400.41;10283152;28;20046;-72
2022/12/03 17:07:52;;;;;;;6.13;2.20;;;;;;;-2.82;86.89;102465.47;10287337;28;20053;-72
2022/12/03 17:12:53;;;;;;;8.95;2.50;;;;;;;-3.37;86.61;102393.75;10286403;28;20122;-72
2022/12/03 17:17:54;;;;;;;6.15;2.40;;;;;;;-2.70;87.18;102502.53;10277326;28;20035;-73
2022/12/03 17:22:56;;;;;;;9.55;2.55;;;;;;;-2.98;87.21;102484.88;10271898;28;20043;-73
2022/12/03 17:27:57;;;;;;;6.70;2.30;;;;;;;-2.79;87.36;102522.63;10278153;28;20132;-73
2022/12/03 17:32:57;;;;;;;6.20;2.42;;;;;;;-2.77;87.91;102539.09;10271097;28;20519;-73
2022/12/03 17:37:58;;;;;;;5.95;1.90;;;;;;;-3.32;87.75;102464.69;10269027;28;20039;-75
2022/12/03 17:42:59;;;;;;;7.38;2.50;;;;;;;-3.22;88.30;102488.78;10269134;28;20035;-73
2022/12/03 17:48:00;;;;;;;10.00;2.53;;;;;;;-2.96;87.73;102531.63;10272234;28;20063;-72
2022/12/03 17:53:04;;;;;;;9.88;1.98;;;;;;;-3.00;88.14;102541.25;10266704;28;20035;-72
2022/12/03 17:58:05;;;;;;;6.63;2.92;;;;;;;-3.73;88.19;102418.63;10295897;28;20392;-75
2022/12/03 18:03:06;;;;;;;5.65;2.17;;;;;;;-3.29;88.93;102498.44;10290599;28;20476;-73
2022/12/03 18:08:06;;;;;;;6.00;2.22;;;;;;;-3.42;90.11;102515.09;10307414;28;20137;-74
2022/12/03 18:13:07;;;;;;;10.75;2.60;;;;;;;-3.67;90.08;102467.88;10308047;28;20530;-72
2022/12/03 18:18:08;;;;;;;6.95;2.33;;;;;;;-3.29;89.72;102542.63;10267184;28;20039;-73
2022/12/03 18:23:09;;;;;;;11.27;2.00;;;;;;;-3.69;89.91;102480.88;10271085;28;20081;-73
2022/12/03 18:28:10;;;;;;;9.55;2.70;;;;;;;-3.92;89.81;102449.22;10268255;28;20531;-73
2022/12/03 18:33:12;;;;;;;6.00;2.00;;;;;;;-3.53;90.67;102530.00;10269742;28;20039;-75
2022/12/03 18:38:16;;;;;;;8.48;1.92;;;;;;;-3.67;90.44;102525.03;10270055;28;20043;-75
2022/12/03 18:43:16;;;;;;;4.53;1.60;;;;;;;-3.49;89.58;102527.34;10269147;28;20046;-74
2022/12/03 18:48:18;;;;;;;7.50;1.95;;;;;;;-3.53;89.75;102530.00;10269547;28;20129;-73
2022/12/03 18:53:19;;;;;;;11.32;1.85;;;;;;;-3.97;89.96;102459.69;10270369;28;20516;-75
2022/12/03 18:58:20;;;;;;;11.98;1.83;;;;;;;-3.97;89.58;102448.44;10268683;28;20049;-73
2022/12/03 19:03:21;;;;;;;5.57;1.80;;;;;;;-3.40;89.74;102539.31;10270830;28;20055;-73
2022/12/03 19:08:22;;;;;;;14.85;2.28;;;;;;;-3.56;89.48;102509.25;10267927;28;20039;-75
2022/12/03 19:13:24;;;;;;;5.57;1.77;;;;;;;-3.56;89.15;102533.53;10278581;28;20413;-73
2022/12/03 19:18:25;;;;;;;5.97;2.05;;;;;;;-3.65;89.68;102509.41;10270060;28;20042;-74
2022/12/03 19:23:26;;;;;;;11.68;1.95;;;;;;;-3.56;89.45;102540.44;10265355;28;20054;-73
2022/12/03 19:28:29;;;;;;;7.03;2.05;;;;;;;-3.65;89.43;102519.78;10269109;28;20126;-73
2022/12/03 19:33:31;;;;;;;4.75;1.70;;;;;;;-3.60;89.64;102539.63;10301427;28;20057;-74
2022/12/03 19:38:33;;;;;;;4.07;1.60;;;;;;;-3.82;89.08;102539.09;10298718;28;20133;-76
2022/12/03 19:43:35;;;;;;;4.25;1.55;;;;;;;-3.77;89.18;102529.50;10294813;28;20057;-73
2022/12/03 19:48:38;;;;;;;5.07;1.77;;;;;;;-4.34;89.52;102467.13;10327178;28;20092;-75
2022/12/03 19:53:40;;;;;;;6.40;1.75;;;;;;;-3.96;89.63;102554.00;10337373;28;20044;-73
2022/12/03 19:58:43;;;;;;;5.95;1.65;;;;;;;-4.04;89.07;102540.25;10338251;28;20046;-74
2022/12/03 20:03:47;;;;;;;12.32;1.67;;;;;;;-4.40;88.97;102496.63;10337455;28;20038;-73
2022/12/03 20:08:48;;;;;;;7.30;2.03;;;;;;;-4.02;88.95;102580.91;10337382;28;20438;-74
2022/12/03 20:13:55;;;;;;;5.93;1.58;;;;;;;-4.68;89.58;102484.84;10335827;28;20043;-71
2022/12/03 20:18:58;;;;;;;6.82;1.67;;;;;;;-4.11;89.27;102585.34;10337080;28;20034;-74
2022/12/03 20:24:00;;;;;;;5.75;1.90;;;;;;;-4.20;89.53;102562.97;10336437;28;20057;-73
2022/12/03 20:29:01;;;;;;;4.70;1.75;;;;;;;-4.20;89.51;102573.34;10334856;28;20042;-74
2022/12/03 20:34:03;;;;;;;6.13;1.50;;;;;;;-4.18;89.30;102584.56;10336648;28;20046;-73
2022/12/03 20:39:05;;;;;;;2.65;1.30;;;;;;;-4.81;89.16;102468.59;10335873;28;20042;-74
2022/12/03 20:44:07;;;;;;;5.47;1.48;;;;;;;-4.40;90.06;102560.59;10335545;28;20042;-73
2022/12/03 20:49:08;;;;;;;5.40;1.77;;;;;;;-4.26;89.67;102583.81;10335960;28;20061;-74
2022/12/03 20:54:09;;;;;;;3.63;1.30;;;;;;;-4.28;89.73;102606.31;10331355;28;20049;-73
2022/12/03 20:59:13;;;;;;;14.10;1.83;;;;;;;-4.31;89.39;102590.78;10320056;28;20047;-74
2022/12/03 21:04:14;;;;;;;5.65;1.70;;;;;;;-4.32;89.87;102592.50;10320400;28;20069;-73
2022/12/03 21:09:15;;;;;;;7.00;1.73;;;;;;;-4.37;89.81;102591.69;10334543;28;20045;-73
2022/12/03 21:14:16;;;;;;;4.53;1.50;;;;;;;-5.20;89.76;102454.31;10301078;28;20049;-72
2022/12/03 21:19:19;;;;;;;3.97;1.42;;;;;;;-4.39;89.35;102596.06;10293956;28;20070;-73
2022/12/03 21:24:19;;;;;;;5.38;1.73;;;;;;;-4.34;89.30;102596.84;10293606;28;20078;-73
2022/12/03 21:29:21;;;;;;;2.10;1.10;;;;;;;-4.57;89.50;102553.03;10333731;28;20502;-73
2022/12/03 21:34:22;;;;;;;5.07;1.60;;;;;;;-4.55;89.36;102573.75;10333819;28;20086;-73
2022/12/03 21:39:23;;;;;;;4.10;1.50;;;;;;;-4.67;89.49;102541.00;10333998;28;20074;-73
2022/12/03 21:44:23;;;;;;;6.50;1.63;;;;;;;-4.28;89.77;102603.72;10333180;28;20073;-73
2022/12/03 21:49:24;;;;;;;7.60;1.70;;;;;;;-4.57;89.36;102554.75;10332334;28;20093;-74
2022/12/03 21:54:25;;;;;;;4.85;1.52;;;;;;;-4.43;89.12;102617.72;10333822;28;20414;-73
2022/12/03 21:59:26;;;;;;;5.28;1.55;;;;;;;-4.31;89.09;102620.16;10332463;28;20621;-73
2022/12/03 22:04:26;;;;;;;8.40;1.30;;;;;;;-4.59;88.65;102576.38;10332968;28;20406;-73
2022/12/03 22:09:27;;;;;;;3.63;1.40;;;;;;;-4.52;89.02;102587.53;10332891;28;20566;-73
2022/12/03 22:14:29;;;;;;;5.30;1.80;;;;;;;-4.38;88.75;102621.13;10332757;28;20039;-73
2022/12/03 22:19:30;;;;;;;10.70;1.65;;;;;;;-4.70;88.82;102578.22;10331338;28;20482;-73
2022/12/03 22:24:31;;;;;;;2.40;1.10;;;;;;;-4.49;88.77;102595.28;10331687;28;20049;-73
2022/12/03 22:29:32;;;;;;;3.40;1.70;;;;;;;-4.54;88.07;102591.03;10331911;28;20046;-76
2022/12/03 22:34:32;;;;;;;4.38;1.60;;;;;;;-4.36;88.45;102634.94;10331546;28;20129;-73
2022/12/03 22:39:33;;;;;;;4.10;1.58;;;;;;;-4.85;88.52;102542.06;10331344;28;20102;-73
2022/12/03 22:44:34;;;;;;;10.25;2.00;;;;;;;-4.34;88.41;102640.09;10332272;28;20042;-75
2022/12/03 22:49:35;;;;;;;6.50;1.55;;;;;;;-4.26;88.32;102652.13;10331778;28;20137;-73
2022/12/03 22:54:36;;;;;;;7.00;2.15;;;;;;;-4.85;87.72;102560.22;10331596;28;20077;-72
2022/12/03 22:59:37;;;;;;;6.53;1.85;;;;;;;-5.19;87.69;102502.66;10331415;28;20133;-72
2022/12/03 23:04:37;;;;;;;4.55;2.03;;;;;;;-4.40;87.35;102628.94;10333669;28;20042;-73
2022/12/03 23:09:38;;;;;;;7.60;2.35;;;;;;;-4.89;87.58;102550.75;10339225;28;20129;-73
2022/12/03 23:14:39;;;;;;;5.82;2.33;;;;;;;-4.66;87.16;102587.69;10339687;28;20395;-72
2022/12/03 23:19:39;;;;;;;6.00;2.67;;;;;;;-4.27;87.24;102668.59;10339717;28;20046;-73
2022/12/03 23:24:40;;;;;;;5.43;2.63;;;;;;;-4.97;87.30;102547.38;10337304;28;20043;-73
2022/12/03 23:29:47;;;;;;;7.97;2.78;;;;;;;-4.44;87.71;102654.91;10338540;28;20076;-73
2022/12/03 23:34:48;;;;;;;7.63;3.60;;;;;;;-4.38;87.78;102678.19;10339006;28;20118;-73